sensor_id;sensor_type;location;lat;lon;timestamp;temperature;humidity
11511;DHT22;5812;48.864;9.190;2023-02-08T00:01:06;-4.30;20.60
11511;DHT22;5812;48.864;9.190;2023-02-08T00:03:32;-4.20;66.00
11511;DHT22;5812;48.864;9.190;2023-02-08T00:05:58;-4.30;67.10
11511;DHT22;5812;48.864;9.190;2023-02-08T00:08:23;-3.90;96.50
11511;DHT22;5812;48.864;9.190;2023-02-08T00:10:49;-4.30;19.40
11511;DHT22;5812;48.864;9.190;2023-02-08T00:13:15;-4.40;11.00
11511;DHT22;5812;48.864;9.190;2023-02-08T00:15:42;-4.50;1.00
11511;DHT22;5812;48.864;9.190;2023-02-08T00:18:08;-4.40;17.60
11511;DHT22;5812;48.864;9.190;2023-02-08T00:20:33;-4.50;1.00
11511;DHT22;5812;48.864;9.190;2023-02-08T00:22:59;-4.50;62.90
11511;DHT22;5812;48.864;9.190;2023-02-08T00:25:24;-4.60;60.30
11511;DHT22;5812;48.864;9.190;2023-02-08T00:27:50;-4.70;93.70
11511;DHT22;5812;48.864;9.190;2023-02-08T00:30:16;-4.60;99.90
11511;DHT22;5812;48.864;9.190;2023-02-08T00:32:41;-4.50;99.90
11511;DHT22;5812;48.864;9.190;2023-02-08T00:35:07;-4.50;99.90
11511;DHT22;5812;48.864;9.190;2023-02-08T00:37:32;-4.60;99.90
11511;DHT22;5812;48.864;9.190;2023-02-08T00:39:58;-4.40;99.90
11511;DHT22;5812;48.864;9.190;2023-02-08T00:42:27;-4.60;99.90
11511;DHT22;5812;48.864;9.190;2023-02-08T00:44:52;-4.60;99.90
11511;DHT22;5812;48.864;9.190;2023-02-08T00:47:18;-4.60;99.90
11511;DHT22;5812;48.864;9.190;2023-02-08T00:49:43;-4.60;99.90
11511;DHT22;5812;48.864;9.190;2023-02-08T00:52:09;-4.70;99.90
11511;DHT22;5812;48.864;9.190;2023-02-08T00:54:34;-4.60;99.90
11511;DHT22;5812;48.864;9.190;2023-02-08T00:57:00;-4.70;99.90
11511;DHT22;5812;48.864;9.190;2023-02-08T00:59:26;-4.70;99.90
11511;DHT22;5812;48.864;9.190;2023-02-08T01:01:52;-4.80;99.90
11511;DHT22;5812;48.864;9.190;2023-02-08T01:04:17;-4.70;99.90
11511;DHT22;5812;48.864;9.190;2023-02-08T01:06:43;-4.70;99.90
11511;DHT22;5812;48.864;9.190;2023-02-08T01:09:08;-4.70;99.90
11511;DHT22;5812;48.864;9.190;2023-02-08T01:11:34;-4.60;99.90
11511;DHT22;5812;48.864;9.190;2023-02-08T01:16:32;-4.10;99.90
11511;DHT22;5812;48.864;9.190;2023-02-08T01:18:59;-4.70;99.90
11511;DHT22;5812;48.864;9.190;2023-02-08T01:21:38;-4.70;99.90
11511;DHT22;5812;48.864;9.190;2023-02-08T01:24:04;-4.50;99.90
11511;DHT22;5812;48.864;9.190;2023-02-08T01:26:30;-4.50;99.90
11511;DHT22;5812;48.864;9.190;2023-02-08T01:28:56;-4.50;19.90
11511;DHT22;5812;48.864;9.190;2023-02-08T01:31:31;-4.60;92.10
11511;DHT22;5812;48.864;9.190;2023-02-08T01:33:57;-4.80;99.90
11511;DHT22;5812;48.864;9.190;2023-02-08T01:36:24;-4.80;99.90
11511;DHT22;5812;48.864;9.190;2023-02-08T01:38:51;-4.70;99.90
11511;DHT22;5812;48.864;9.190;2023-02-08T01:41:29;-4.90;99.90
11511;DHT22;5812;48.864;9.190;2023-02-08T01:46:37;-4.70;88.00
11511;DHT22;5812;48.864;9.190;2023-02-08T01:49:11;-4.70;99.90
11511;DHT22;5812;48.864;9.190;2023-02-08T01:51:46;-4.80;99.90
11511;DHT22;5812;48.864;9.190;2023-02-08T01:54:13;-4.80;99.90
11511;DHT22;5812;48.864;9.190;2023-02-08T01:56:42;-4.80;99.90
11511;DHT22;5812;48.864;9.190;2023-02-08T01:59:13;-4.90;99.90
11511;DHT22;5812;48.864;9.190;2023-02-08T02:01:42;-4.90;99.90
11511;DHT22;5812;48.864;9.190;2023-02-08T02:04:09;-4.90;99.90
11511;DHT22;5812;48.864;9.190;2023-02-08T02:06:39;-4.90;99.90
11511;DHT22;5812;48.864;9.190;2023-02-08T02:09:14;-4.90;99.90
11511;DHT22;5812;48.864;9.190;2023-02-08T02:11:41;-4.80;99.90
11511;DHT22;5812;48.864;9.190;2023-02-08T02:14:07;-4.80;99.90
11511;DHT22;5812;48.864;9.190;2023-02-08T02:16:34;-4.80;10.20
11511;DHT22;5812;48.864;9.190;2023-02-08T02:19:00;-5.00;1.00
11511;DHT22;5812;48.864;9.190;2023-02-08T02:21:35;-4.90;99.90
11511;DHT22;5812;48.864;9.190;2023-02-08T02:27:15;-4.80;80.40
11511;DHT22;5812;48.864;9.190;2023-02-08T02:38:16;-5.10;99.90
11511;DHT22;5812;48.864;9.190;2023-02-08T02:40:49;-5.10;99.90
11511;DHT22;5812;48.864;9.190;2023-02-08T02:43:31;-5.00;42.60
11511;DHT22;5812;48.864;9.190;2023-02-08T02:49:14;-5.10;99.90
11511;DHT22;5812;48.864;9.190;2023-02-08T02:54:50;-5.20;99.90
11511;DHT22;5812;48.864;9.190;2023-02-08T02:57:30;-5.20;99.90
11511;DHT22;5812;48.864;9.190;2023-02-08T02:59:59;-5.40;99.90
11511;DHT22;5812;48.864;9.190;2023-02-08T03:02:26;-5.10;99.90
11511;DHT22;5812;48.864;9.190;2023-02-08T03:04:56;-5.10;99.90
11511;DHT22;5812;48.864;9.190;2023-02-08T03:10:24;-5.20;96.30
11511;DHT22;5812;48.864;9.190;2023-02-08T03:16:26;-5.30;1.00
11511;DHT22;5812;48.864;9.190;2023-02-08T03:19:06;-5.40;83.80
11511;DHT22;5812;48.864;9.190;2023-02-08T03:21:48;-5.30;99.90
11511;DHT22;5812;48.864;9.190;2023-02-08T03:24:27;-5.40;99.90
11511;DHT22;5812;48.864;9.190;2023-02-08T03:32:46;-5.40;99.90
11511;DHT22;5812;48.864;9.190;2023-02-08T03:35:32;-5.20;99.90
11511;DHT22;5812;48.864;9.190;2023-02-08T03:38:05;-5.30;55.00
11511;DHT22;5812;48.864;9.190;2023-02-08T03:40:43;-5.30;99.90
11511;DHT22;5812;48.864;9.190;2023-02-08T03:43:26;-5.40;99.90
11511;DHT22;5812;48.864;9.190;2023-02-08T03:46:06;-5.40;99.90
11511;DHT22;5812;48.864;9.190;2023-02-08T03:48:37;-4.90;99.90
11511;DHT22;5812;48.864;9.190;2023-02-08T03:51:04;-5.40;99.90
11511;DHT22;5812;48.864;9.190;2023-02-08T03:53:31;-5.40;99.90
11511;DHT22;5812;48.864;9.190;2023-02-08T03:56:13;-5.40;99.90
11511;DHT22;5812;48.864;9.190;2023-02-08T03:58:51;-5.50;99.90
11511;DHT22;5812;48.864;9.190;2023-02-08T04:01:24;-5.30;99.90
11511;DHT22;5812;48.864;9.190;2023-02-08T04:03:52;-5.50;93.60
11511;DHT22;5812;48.864;9.190;2023-02-08T04:06:19;-5.40;99.90
11511;DHT22;5812;48.864;9.190;2023-02-08T04:08:45;-5.50;99.90
11511;DHT22;5812;48.864;9.190;2023-02-08T04:11:10;-5.60;99.90
11511;DHT22;5812;48.864;9.190;2023-02-08T04:13:36;-5.40;99.90
11511;DHT22;5812;48.864;9.190;2023-02-08T04:16:02;-5.50;99.90
11511;DHT22;5812;48.864;9.190;2023-02-08T04:18:28;-5.40;77.80
11511;DHT22;5812;48.864;9.190;2023-02-08T04:20:53;-5.50;34.10
11511;DHT22;5812;48.864;9.190;2023-02-08T04:23:19;-5.60;28.30
11511;DHT22;5812;48.864;9.190;2023-02-08T04:25:44;-5.60;99.90
11511;DHT22;5812;48.864;9.190;2023-02-08T04:28:10;-5.60;99.90
11511;DHT22;5812;48.864;9.190;2023-02-08T04:30:35;-5.50;99.90
11511;DHT22;5812;48.864;9.190;2023-02-08T04:33:01;-5.50;99.90
11511;DHT22;5812;48.864;9.190;2023-02-08T04:35:28;-5.40;99.90
11511;DHT22;5812;48.864;9.190;2023-02-08T04:37:53;-5.60;99.90
11511;DHT22;5812;48.864;9.190;2023-02-08T04:40:19;-5.60;99.90
11511;DHT22;5812;48.864;9.190;2023-02-08T04:42:45;-5.70;99.90
11511;DHT22;5812;48.864;9.190;2023-02-08T04:45:10;-5.60;99.90
11511;DHT22;5812;48.864;9.190;2023-02-08T04:47:36;-5.70;99.90
11511;DHT22;5812;48.864;9.190;2023-02-08T04:50:02;-5.60;99.90
11511;DHT22;5812;48.864;9.190;2023-02-08T04:52:27;-5.60;99.90
11511;DHT22;5812;48.864;9.190;2023-02-08T04:54:53;-5.60;79.30
11511;DHT22;5812;48.864;9.190;2023-02-08T04:57:19;-5.70;99.90
11511;DHT22;5812;48.864;9.190;2023-02-08T04:59:44;-5.70;99.90
11511;DHT22;5812;48.864;9.190;2023-02-08T05:02:10;-5.70;99.90
11511;DHT22;5812;48.864;9.190;2023-02-08T05:04:35;-5.80;99.90
11511;DHT22;5812;48.864;9.190;2023-02-08T05:07:01;-5.70;99.90
11511;DHT22;5812;48.864;9.190;2023-02-08T05:09:27;-5.70;99.90
11511;DHT22;5812;48.864;9.190;2023-02-08T05:11:52;-5.70;97.20
11511;DHT22;5812;48.864;9.190;2023-02-08T05:14:18;-5.70;73.00
11511;DHT22;5812;48.864;9.190;2023-02-08T05:16:43;-5.70;93.50
11511;DHT22;5812;48.864;9.190;2023-02-08T05:19:10;-5.80;99.90
11511;DHT22;5812;48.864;9.190;2023-02-08T05:21:36;-5.80;99.90
11511;DHT22;5812;48.864;9.190;2023-02-08T05:24:01;-5.80;99.90
11511;DHT22;5812;48.864;9.190;2023-02-08T05:26:27;-5.80;99.90
11511;DHT22;5812;48.864;9.190;2023-02-08T05:28:53;-5.90;99.90
11511;DHT22;5812;48.864;9.190;2023-02-08T05:31:23;-5.80;99.90
11511;DHT22;5812;48.864;9.190;2023-02-08T05:33:50;-5.70;99.90
11511;DHT22;5812;48.864;9.190;2023-02-08T05:36:16;-5.80;99.90
11511;DHT22;5812;48.864;9.190;2023-02-08T05:38:42;-5.80;99.90
11511;DHT22;5812;48.864;9.190;2023-02-08T05:41:08;-5.90;99.90
11511;DHT22;5812;48.864;9.190;2023-02-08T05:43:36;-5.90;99.90
11511;DHT22;5812;48.864;9.190;2023-02-08T05:46:02;-5.90;99.90
11511;DHT22;5812;48.864;9.190;2023-02-08T05:48:29;-5.80;99.90
11511;DHT22;5812;48.864;9.190;2023-02-08T05:50:55;-5.70;99.90
11511;DHT22;5812;48.864;9.190;2023-02-08T05:53:21;-5.80;76.30
11511;DHT22;5812;48.864;9.190;2023-02-08T05:55:47;-5.80;98.20
11511;DHT22;5812;48.864;9.190;2023-02-08T05:58:14;-5.80;99.90
11511;DHT22;5812;48.864;9.190;2023-02-08T06:00:39;-5.80;99.90
11511;DHT22;5812;48.864;9.190;2023-02-08T06:03:05;-5.80;99.90
11511;DHT22;5812;48.864;9.190;2023-02-08T06:05:31;-5.70;38.20
11511;DHT22;5812;48.864;9.190;2023-02-08T06:07:57;-5.70;1.00
11511;DHT22;5812;48.864;9.190;2023-02-08T06:10:22;-5.40;1.00
11511;DHT22;5812;48.864;9.190;2023-02-08T06:12:48;-5.50;1.00
11511;DHT22;5812;48.864;9.190;2023-02-08T06:15:14;-5.50;1.00
11511;DHT22;5812;48.864;9.190;2023-02-08T06:17:39;-5.50;1.00
11511;DHT22;5812;48.864;9.190;2023-02-08T06:20:05;-5.70;1.00
11511;DHT22;5812;48.864;9.190;2023-02-08T06:22:33;-5.70;1.00
11511;DHT22;5812;48.864;9.190;2023-02-08T06:24:59;-5.80;1.00
11511;DHT22;5812;48.864;9.190;2023-02-08T06:27:25;-5.80;1.00
11511;DHT22;5812;48.864;9.190;2023-02-08T06:29:50;-5.80;12.20
11511;DHT22;5812;48.864;9.190;2023-02-08T06:32:16;-5.80;1.00
11511;DHT22;5812;48.864;9.190;2023-02-08T06:34:41;-5.70;1.00
11511;DHT22;5812;48.864;9.190;2023-02-08T06:37:07;-5.50;1.00
11511;DHT22;5812;48.864;9.190;2023-02-08T06:39:33;-5.60;99.90
11511;DHT22;5812;48.864;9.190;2023-02-08T06:41:58;-5.70;1.00
11511;DHT22;5812;48.864;9.190;2023-02-08T06:44:24;-5.80;1.00
11511;DHT22;5812;48.864;9.190;2023-02-08T06:46:49;-5.80;1.00
11511;DHT22;5812;48.864;9.190;2023-02-08T06:49:15;-5.70;1.00
11511;DHT22;5812;48.864;9.190;2023-02-08T06:51:40;-5.70;1.00
11511;DHT22;5812;48.864;9.190;2023-02-08T06:54:06;-5.60;1.00
11511;DHT22;5812;48.864;9.190;2023-02-08T06:56:32;-5.70;1.00
11511;DHT22;5812;48.864;9.190;2023-02-08T06:58:57;-5.60;1.00
11511;DHT22;5812;48.864;9.190;2023-02-08T07:01:23;-5.60;1.00
11511;DHT22;5812;48.864;9.190;2023-02-08T07:03:48;-5.60;1.00
11511;DHT22;5812;48.864;9.190;2023-02-08T07:06:16;-5.60;1.00
11511;DHT22;5812;48.864;9.190;2023-02-08T07:08:42;-5.50;1.00
11511;DHT22;5812;48.864;9.190;2023-02-08T07:11:10;-5.50;1.00
11511;DHT22;5812;48.864;9.190;2023-02-08T07:13:37;-5.50;1.00
11511;DHT22;5812;48.864;9.190;2023-02-08T07:16:07;-5.50;1.00
11511;DHT22;5812;48.864;9.190;2023-02-08T07:18:34;-5.70;1.00
11511;DHT22;5812;48.864;9.190;2023-02-08T07:21:00;-5.50;99.90
11511;DHT22;5812;48.864;9.190;2023-02-08T07:23:25;-5.40;99.90
11511;DHT22;5812;48.864;9.190;2023-02-08T07:26:07;-5.40;1.00
11511;DHT22;5812;48.864;9.190;2023-02-08T07:28:34;-5.30;99.90
11511;DHT22;5812;48.864;9.190;2023-02-08T07:31:10;-5.30;99.90
11511;DHT22;5812;48.864;9.190;2023-02-08T07:33:38;-5.00;99.90
11511;DHT22;5812;48.864;9.190;2023-02-08T07:36:04;-5.00;99.90
11511;DHT22;5812;48.864;9.190;2023-02-08T07:38:31;-4.80;99.90
11511;DHT22;5812;48.864;9.190;2023-02-08T07:41:06;-4.80;99.90
11511;DHT22;5812;48.864;9.190;2023-02-08T07:43:34;-4.70;99.90
11511;DHT22;5812;48.864;9.190;2023-02-08T07:46:14;-4.60;99.90
11511;DHT22;5812;48.864;9.190;2023-02-08T07:48:40;-4.40;99.90
11511;DHT22;5812;48.864;9.190;2023-02-08T07:51:07;-4.10;99.90
11511;DHT22;5812;48.864;9.190;2023-02-08T07:53:33;-4.10;94.30
11511;DHT22;5812;48.864;9.190;2023-02-08T07:55:59;-4.30;95.50
11511;DHT22;5812;48.864;9.190;2023-02-08T07:58:25;-4.00;92.00
11511;DHT22;5812;48.864;9.190;2023-02-08T08:00:50;-4.10;85.20
11511;DHT22;5812;48.864;9.190;2023-02-08T08:03:16;-4.10;50.00
11511;DHT22;5812;48.864;9.190;2023-02-08T08:05:42;-3.90;38.60
11511;DHT22;5812;48.864;9.190;2023-02-08T08:08:08;-3.90;32.00
11511;DHT22;5812;48.864;9.190;2023-02-08T08:10:34;-3.80;27.60
11511;DHT22;5812;48.864;9.190;2023-02-08T08:13:00;-3.60;9.10
11511;DHT22;5812;48.864;9.190;2023-02-08T08:15:26;-3.40;1.00
11511;DHT22;5812;48.864;9.190;2023-02-08T08:17:52;-3.20;1.00
11511;DHT22;5812;48.864;9.190;2023-02-08T08:20:17;-3.00;1.00
11511;DHT22;5812;48.864;9.190;2023-02-08T08:22:43;-2.60;1.00
11511;DHT22;5812;48.864;9.190;2023-02-08T08:25:09;-2.40;1.00
11511;DHT22;5812;48.864;9.190;2023-02-08T08:27:34;-2.30;1.00
11511;DHT22;5812;48.864;9.190;2023-02-08T08:30:00;-1.30;1.00
11511;DHT22;5812;48.864;9.190;2023-02-08T08:32:26;-2.00;1.00
11511;DHT22;5812;48.864;9.190;2023-02-08T08:34:52;-1.70;1.00
11511;DHT22;5812;48.864;9.190;2023-02-08T08:37:17;-1.60;1.00
11511;DHT22;5812;48.864;9.190;2023-02-08T08:39:43;-1.40;1.00
11511;DHT22;5812;48.864;9.190;2023-02-08T08:42:09;-1.30;1.00
11511;DHT22;5812;48.864;9.190;2023-02-08T08:44:34;-1.20;1.00
11511;DHT22;5812;48.864;9.190;2023-02-08T08:47:00;-1.10;1.00
11511;DHT22;5812;48.864;9.190;2023-02-08T08:49:27;-1.00;1.00
11511;DHT22;5812;48.864;9.190;2023-02-08T08:51:53;-1.00;1.00
11511;DHT22;5812;48.864;9.190;2023-02-08T08:54:20;-0.90;1.00
11511;DHT22;5812;48.864;9.190;2023-02-08T08:56:46;-0.70;1.00
11511;DHT22;5812;48.864;9.190;2023-02-08T08:59:12;-0.60;1.00
11511;DHT22;5812;48.864;9.190;2023-02-08T09:01:37;-0.60;1.00
11511;DHT22;5812;48.864;9.190;2023-02-08T09:04:04;-0.40;1.00
11511;DHT22;5812;48.864;9.190;2023-02-08T09:06:30;-0.20;1.00
11511;DHT22;5812;48.864;9.190;2023-02-08T09:08:55;-0.20;1.00
11511;DHT22;5812;48.864;9.190;2023-02-08T09:11:21;0.00;1.00
11511;DHT22;5812;48.864;9.190;2023-02-08T09:13:46;0.20;1.00
11511;DHT22;5812;48.864;9.190;2023-02-08T09:16:17;0.20;1.00
11511;DHT22;5812;48.864;9.190;2023-02-08T09:18:44;0.40;1.00
11511;DHT22;5812;48.864;9.190;2023-02-08T09:21:18;0.50;1.00
11511;DHT22;5812;48.864;9.190;2023-02-08T09:23:44;0.60;1.00
11511;DHT22;5812;48.864;9.190;2023-02-08T09:26:13;0.90;1.00
11511;DHT22;5812;48.864;9.190;2023-02-08T09:28:38;1.20;1.00
11511;DHT22;5812;48.864;9.190;2023-02-08T09:31:12;1.20;1.00
11511;DHT22;5812;48.864;9.190;2023-02-08T09:33:40;1.40;1.00
11511;DHT22;5812;48.864;9.190;2023-02-08T09:36:06;1.40;1.00
11511;DHT22;5812;48.864;9.190;2023-02-08T09:38:33;1.70;1.00
11511;DHT22;5812;48.864;9.190;2023-02-08T09:46:29;2.40;1.00
11511;DHT22;5812;48.864;9.190;2023-02-08T09:48:59;2.30;1.00
11511;DHT22;5812;48.864;9.190;2023-02-08T09:51:39;2.20;1.00
11511;DHT22;5812;48.864;9.190;2023-02-08T09:54:14;2.60;1.00
11511;DHT22;5812;48.864;9.190;2023-02-08T09:56:42;2.70;1.00
11511;DHT22;5812;48.864;9.190;2023-02-08T09:59:21;2.90;1.00
11511;DHT22;5812;48.864;9.190;2023-02-08T10:01:50;3.40;1.00
11511;DHT22;5812;48.864;9.190;2023-02-08T10:04:44;3.40;1.00
11511;DHT22;5812;48.864;9.190;2023-02-08T10:07:12;3.40;1.00
11511;DHT22;5812;48.864;9.190;2023-02-08T10:09:38;3.50;1.00
11511;DHT22;5812;48.864;9.190;2023-02-08T10:12:18;3.40;1.00
11511;DHT22;5812;48.864;9.190;2023-02-08T10:15:37;3.50;1.00
11511;DHT22;5812;48.864;9.190;2023-02-08T10:28:44;4.00;1.00
11511;DHT22;5812;48.864;9.190;2023-02-08T10:34:10;4.30;1.00
11511;DHT22;5812;48.864;9.190;2023-02-08T10:36:39;4.90;1.00
11511;DHT22;5812;48.864;9.190;2023-02-08T10:39:25;4.70;1.00
11511;DHT22;5812;48.864;9.190;2023-02-08T10:41:52;4.80;1.00
11511;DHT22;5812;48.864;9.190;2023-02-08T10:44:40;5.20;1.00
11511;DHT22;5812;48.864;9.190;2023-02-08T10:50:36;5.40;1.00
11511;DHT22;5812;48.864;9.190;2023-02-08T10:53:03;5.80;1.00
11511;DHT22;5812;48.864;9.190;2023-02-08T10:55:30;6.00;1.00
11511;DHT22;5812;48.864;9.190;2023-02-08T10:57:59;6.00;1.00
11511;DHT22;5812;48.864;9.190;2023-02-08T11:00:33;6.00;1.00
11511;DHT22;5812;48.864;9.190;2023-02-08T11:03:24;5.80;1.00
11511;DHT22;5812;48.864;9.190;2023-02-08T11:05:51;5.60;1.00
11511;DHT22;5812;48.864;9.190;2023-02-08T11:08:19;5.90;1.00
11511;DHT22;5812;48.864;9.190;2023-02-08T11:11:12;6.50;1.00
11511;DHT22;5812;48.864;9.190;2023-02-08T11:13:43;6.50;1.00
11511;DHT22;5812;48.864;9.190;2023-02-08T11:16:12;6.60;1.00
11511;DHT22;5812;48.864;9.190;2023-02-08T11:21:28;7.00;1.00
11511;DHT22;5812;48.864;9.190;2023-02-08T11:23:56;7.40;1.00
11511;DHT22;5812;48.864;9.190;2023-02-08T11:26:33;7.50;1.00
11511;DHT22;5812;48.864;9.190;2023-02-08T11:29:04;7.70;1.00
11511;DHT22;5812;48.864;9.190;2023-02-08T11:31:36;7.90;1.00
11511;DHT22;5812;48.864;9.190;2023-02-08T11:34:04;8.50;1.00
11511;DHT22;5812;48.864;9.190;2023-02-08T11:36:32;8.60;1.00
11511;DHT22;5812;48.864;9.190;2023-02-08T11:39:01;9.60;1.00
11511;DHT22;5812;48.864;9.190;2023-02-08T11:41:27;9.80;1.00
11511;DHT22;5812;48.864;9.190;2023-02-08T11:43:57;9.20;1.00
11511;DHT22;5812;48.864;9.190;2023-02-08T11:46:25;9.40;1.00
11511;DHT22;5812;48.864;9.190;2023-02-08T11:48:53;9.40;1.00
11511;DHT22;5812;48.864;9.190;2023-02-08T11:51:31;9.40;1.00
11511;DHT22;5812;48.864;9.190;2023-02-08T11:53:58;9.50;1.00
11511;DHT22;5812;48.864;9.190;2023-02-08T11:56:33;10.00;1.00
11511;DHT22;5812;48.864;9.190;2023-02-08T11:59:08;10.70;1.00
11511;DHT22;5812;48.864;9.190;2023-02-08T12:01:41;11.30;1.00
11511;DHT22;5812;48.864;9.190;2023-02-08T12:04:10;11.80;1.00
11511;DHT22;5812;48.864;9.190;2023-02-08T12:09:37;12.60;1.00
11511;DHT22;5812;48.864;9.190;2023-02-08T12:12:35;13.20;1.00
11511;DHT22;5812;48.864;9.190;2023-02-08T12:31:33;16.40;99.90
11511;DHT22;5812;48.864;9.190;2023-02-08T12:34:54;15.70;99.90
11511;DHT22;5812;48.864;9.190;2023-02-08T12:46:10;16.90;99.90
11511;DHT22;5812;48.864;9.190;2023-02-08T12:51:38;16.40;99.90
11511;DHT22;5812;48.864;9.190;2023-02-08T12:54:14;17.40;99.90
11511;DHT22;5812;48.864;9.190;2023-02-08T12:56:44;16.30;99.90
11511;DHT22;5812;48.864;9.190;2023-02-08T12:59:39;16.60;99.90
11511;DHT22;5812;48.864;9.190;2023-02-08T13:02:24;17.30;99.90
11511;DHT22;5812;48.864;9.190;2023-02-08T13:04:52;16.80;99.90
11511;DHT22;5812;48.864;9.190;2023-02-08T13:07:38;16.90;99.90
11511;DHT22;5812;48.864;9.190;2023-02-08T13:13:05;16.50;99.90
11511;DHT22;5812;48.864;9.190;2023-02-08T13:15:38;16.30;99.90
11511;DHT22;5812;48.864;9.190;2023-02-08T13:18:20;16.00;99.90
11511;DHT22;5812;48.864;9.190;2023-02-08T13:20:52;16.50;99.90
11511;DHT22;5812;48.864;9.190;2023-02-08T13:23:30;17.30;99.90
11511;DHT22;5812;48.864;9.190;2023-02-08T13:26:01;17.50;99.90
11511;DHT22;5812;48.864;9.190;2023-02-08T13:28:27;17.50;99.90
11511;DHT22;5812;48.864;9.190;2023-02-08T13:31:02;17.30;99.90
11511;DHT22;5812;48.864;9.190;2023-02-08T13:33:38;16.10;99.90
11511;DHT22;5812;48.864;9.190;2023-02-08T13:36:24;16.10;99.90
11511;DHT22;5812;48.864;9.190;2023-02-08T13:38:51;16.30;99.90
11511;DHT22;5812;48.864;9.190;2023-02-08T13:41:20;16.60;99.90
11511;DHT22;5812;48.864;9.190;2023-02-08T13:46:18;15.10;99.90
11511;DHT22;5812;48.864;9.190;2023-02-08T13:48:50;14.90;99.90
11511;DHT22;5812;48.864;9.190;2023-02-08T13:56:42;14.30;99.90
11511;DHT22;5812;48.864;9.190;2023-02-08T13:59:30;14.60;99.90
11511;DHT22;5812;48.864;9.190;2023-02-08T14:02:20;13.20;99.90
11511;DHT22;5812;48.864;9.190;2023-02-08T14:04:49;12.80;99.90
11511;DHT22;5812;48.864;9.190;2023-02-08T14:07:29;12.40;99.90
11511;DHT22;5812;48.864;9.190;2023-02-08T14:12:59;10.40;99.90
11511;DHT22;5812;48.864;9.190;2023-02-08T14:15:31;9.30;99.90
11511;DHT22;5812;48.864;9.190;2023-02-08T14:17:58;9.80;99.90
11511;DHT22;5812;48.864;9.190;2023-02-08T14:20:39;10.10;99.90
11511;DHT22;5812;48.864;9.190;2023-02-08T14:23:25;10.50;99.90
11511;DHT22;5812;48.864;9.190;2023-02-08T14:25:54;9.90;99.90
11511;DHT22;5812;48.864;9.190;2023-02-08T14:28:33;10.20;99.90
11511;DHT22;5812;48.864;9.190;2023-02-08T14:31:03;9.20;99.90
11511;DHT22;5812;48.864;9.190;2023-02-08T14:33:52;9.20;99.90
11511;DHT22;5812;48.864;9.190;2023-02-08T14:36:29;9.00;99.90
11511;DHT22;5812;48.864;9.190;2023-02-08T14:41:52;7.30;1.00
11511;DHT22;5812;48.864;9.190;2023-02-08T14:47:04;7.30;1.00
11511;DHT22;5812;48.864;9.190;2023-02-08T14:49:36;6.80;1.00
11511;DHT22;5812;48.864;9.190;2023-02-08T14:52:12;6.50;1.00
11511;DHT22;5812;48.864;9.190;2023-02-08T14:57:31;7.60;1.00
11511;DHT22;5812;48.864;9.190;2023-02-08T15:00:03;7.20;1.00
11511;DHT22;5812;48.864;9.190;2023-02-08T15:02:29;6.90;1.00
11511;DHT22;5812;48.864;9.190;2023-02-08T15:04:59;6.80;1.00
11511;DHT22;5812;48.864;9.190;2023-02-08T15:07:29;6.60;1.00
11511;DHT22;5812;48.864;9.190;2023-02-08T15:09:56;6.90;1.00
11511;DHT22;5812;48.864;9.190;2023-02-08T15:12:33;6.50;1.00
11511;DHT22;5812;48.864;9.190;2023-02-08T15:15:01;6.40;1.00
11511;DHT22;5812;48.864;9.190;2023-02-08T15:17:40;6.70;1.00
11511;DHT22;5812;48.864;9.190;2023-02-08T15:20:25;6.40;1.00
11511;DHT22;5812;48.864;9.190;2023-02-08T15:23:00;5.90;1.00
11511;DHT22;5812;48.864;9.190;2023-02-08T15:25:30;5.90;1.00
11511;DHT22;5812;48.864;9.190;2023-02-08T15:30:42;5.80;1.00
11511;DHT22;5812;48.864;9.190;2023-02-08T15:33:17;5.40;1.00
11511;DHT22;5812;48.864;9.190;2023-02-08T15:35:43;5.30;1.00
11511;DHT22;5812;48.864;9.190;2023-02-08T15:38:15;4.70;1.00
11511;DHT22;5812;48.864;9.190;2023-02-08T15:40:41;4.50;1.00
11511;DHT22;5812;48.864;9.190;2023-02-08T15:45:33;3.90;1.00
11511;DHT22;5812;48.864;9.190;2023-02-08T15:47:59;3.80;1.00
11511;DHT22;5812;48.864;9.190;2023-02-08T15:50:27;3.60;1.00
11511;DHT22;5812;48.864;9.190;2023-02-08T15:53:04;3.50;1.00
11511;DHT22;5812;48.864;9.190;2023-02-08T15:55:38;3.30;1.00
11511;DHT22;5812;48.864;9.190;2023-02-08T15:58:30;3.10;1.00
11511;DHT22;5812;48.864;9.190;2023-02-08T16:00:58;2.90;1.00
11511;DHT22;5812;48.864;9.190;2023-02-08T16:03:25;2.80;1.00
11511;DHT22;5812;48.864;9.190;2023-02-08T16:06:03;2.60;1.00
11511;DHT22;5812;48.864;9.190;2023-02-08T16:08:33;2.60;1.00
11511;DHT22;5812;48.864;9.190;2023-02-08T16:13:49;2.30;1.00
11511;DHT22;5812;48.864;9.190;2023-02-08T16:19:01;2.20;1.00
11511;DHT22;5812;48.864;9.190;2023-02-08T16:21:38;2.10;1.00
11511;DHT22;5812;48.864;9.190;2023-02-08T16:26:44;2.00;1.00
11511;DHT22;5812;48.864;9.190;2023-02-08T16:29:20;1.80;1.00
11511;DHT22;5812;48.864;9.190;2023-02-08T16:32:02;1.60;1.00
11511;DHT22;5812;48.864;9.190;2023-02-08T16:34:36;1.50;1.00
11511;DHT22;5812;48.864;9.190;2023-02-08T16:37:04;1.40;1.00
11511;DHT22;5812;48.864;9.190;2023-02-08T16:39:54;1.40;1.00
11511;DHT22;5812;48.864;9.190;2023-02-08T16:42:21;1.30;1.00
11511;DHT22;5812;48.864;9.190;2023-02-08T16:47:37;1.00;1.00
11511;DHT22;5812;48.864;9.190;2023-02-08T16:50:04;1.00;1.00
11511;DHT22;5812;48.864;9.190;2023-02-08T16:52:30;0.90;1.00
11511;DHT22;5812;48.864;9.190;2023-02-08T16:54:57;0.80;1.00
11511;DHT22;5812;48.864;9.190;2023-02-08T16:57:23;0.70;1.00
11511;DHT22;5812;48.864;9.190;2023-02-08T16:59:49;0.60;1.00
11511;DHT22;5812;48.864;9.190;2023-02-08T17:02:14;0.50;1.00
11511;DHT22;5812;48.864;9.190;2023-02-08T17:04:40;0.50;1.00
11511;DHT22;5812;48.864;9.190;2023-02-08T17:07:10;0.50;1.00
11511;DHT22;5812;48.864;9.190;2023-02-08T17:09:40;0.40;1.00
11511;DHT22;5812;48.864;9.190;2023-02-08T17:12:10;0.40;1.00
11511;DHT22;5812;48.864;9.190;2023-02-08T17:14:36;0.30;1.00
11511;DHT22;5812;48.864;9.190;2023-02-08T17:17:02;0.30;1.00
11511;DHT22;5812;48.864;9.190;2023-02-08T17:19:27;0.20;1.00
11511;DHT22;5812;48.864;9.190;2023-02-08T17:21:53;0.20;1.00
11511;DHT22;5812;48.864;9.190;2023-02-08T17:24:18;0.00;1.00
11511;DHT22;5812;48.864;9.190;2023-02-08T17:26:46;-0.10;1.00
11511;DHT22;5812;48.864;9.190;2023-02-08T17:29:12;-0.10;1.00
11511;DHT22;5812;48.864;9.190;2023-02-08T17:31:38;-0.10;1.00
11511;DHT22;5812;48.864;9.190;2023-02-08T17:34:03;-0.20;1.00
11511;DHT22;5812;48.864;9.190;2023-02-08T17:36:31;-0.20;1.00
11511;DHT22;5812;48.864;9.190;2023-02-08T17:38:57;-0.20;1.00
11511;DHT22;5812;48.864;9.190;2023-02-08T17:41:23;-0.20;1.00
11511;DHT22;5812;48.864;9.190;2023-02-08T17:43:50;0.30;1.00
11511;DHT22;5812;48.864;9.190;2023-02-08T17:46:20;-0.40;1.00
11511;DHT22;5812;48.864;9.190;2023-02-08T17:48:46;-0.40;1.00
11511;DHT22;5812;48.864;9.190;2023-02-08T17:51:14;-0.40;1.00
11511;DHT22;5812;48.864;9.190;2023-02-08T17:53:41;-0.60;1.00
11511;DHT22;5812;48.864;9.190;2023-02-08T17:56:22;-0.60;1.00
11511;DHT22;5812;48.864;9.190;2023-02-08T17:58:49;-0.70;1.00
11511;DHT22;5812;48.864;9.190;2023-02-08T18:01:18;-0.60;1.00
11511;DHT22;5812;48.864;9.190;2023-02-08T18:03:45;-0.70;1.00
11511;DHT22;5812;48.864;9.190;2023-02-08T18:06:12;-0.70;1.00
11511;DHT22;5812;48.864;9.190;2023-02-08T18:08:38;-0.80;1.00
11511;DHT22;5812;48.864;9.190;2023-02-08T18:11:15;-0.90;1.00
11511;DHT22;5812;48.864;9.190;2023-02-08T18:13:42;-0.90;1.00
11511;DHT22;5812;48.864;9.190;2023-02-08T18:16:09;-1.00;1.00
11511;DHT22;5812;48.864;9.190;2023-02-08T18:18:35;-1.00;1.00
11511;DHT22;5812;48.864;9.190;2023-02-08T18:21:01;-0.90;1.00
11511;DHT22;5812;48.864;9.190;2023-02-08T18:23:27;-0.90;1.00
11511;DHT22;5812;48.864;9.190;2023-02-08T18:26:05;-0.80;1.00